createdAt,value
2023-01-12T00:00:08.982Z,0
2023-01-12T00:01:18.162Z,0
2023-01-12T00:02:27.331Z,0
2023-01-12T00:04:45.695Z,0
2023-01-12T00:05:54.899Z,0
2023-01-12T00:07:04.028Z,0
2023-01-12T00:08:13.190Z,0
2023-01-12T00:09:22.342Z,0
2023-01-12T00:10:31.524Z,0
2023-01-12T00:11:39.712Z,0
2023-01-12T00:12:48.887Z,0
2023-01-12T00:13:58.129Z,0
2023-01-12T00:15:07.224Z,0
2023-01-12T00:16:16.399Z,0
2023-01-12T00:17:25.576Z,0
2023-01-12T00:18:34.796Z,0
2023-01-12T00:19:43.950Z,0
2023-01-12T00:20:52.117Z,0
2023-01-12T00:22:00.302Z,0
2023-01-12T00:23:09.472Z,0
2023-01-12T00:24:18.682Z,0
2023-01-12T00:25:27.818Z,0
2023-01-12T00:26:36.993Z,0
2023-01-12T00:27:46.162Z,0
2023-01-12T00:28:55.326Z,0
2023-01-12T00:30:04.509Z,0
2023-01-12T00:31:13.693Z,0
2023-01-12T00:32:22.868Z,0
2023-01-12T00:33:32.016Z,0
2023-01-12T00:34:41.203Z,0
2023-01-12T00:35:50.379Z,0
2023-01-12T00:36:58.554Z,0
2023-01-12T00:38:07.730Z,0
2023-01-12T00:39:16.911Z,0
2023-01-12T00:40:26.079Z,0
2023-01-12T00:41:35.253Z,0
2023-01-12T00:43:53.613Z,0
2023-01-12T00:45:02.774Z,0
2023-01-12T00:46:10.961Z,0
2023-01-12T00:47:19.157Z,0
2023-01-12T00:48:28.557Z,0
2023-01-12T00:49:36.524Z,0
2023-01-12T00:50:44.710Z,0
2023-01-12T00:51:53.881Z,0
2023-01-12T00:53:03.054Z,0
2023-01-12T00:54:12.223Z,0
2023-01-12T00:55:21.399Z,0
2023-01-12T00:56:30.560Z,0
2023-01-12T00:57:39.736Z,0
2023-01-12T00:58:48.916Z,0
2023-01-12T00:59:58.092Z,0
2023-01-12T01:01:07.261Z,0
2023-01-12T01:02:16.436Z,0
2023-01-12T01:03:25.602Z,0
2023-01-12T01:04:34.774Z,0
2023-01-12T01:05:42.955Z,0
2023-01-12T01:06:52.144Z,0
2023-01-12T01:08:01.377Z,0
2023-01-12T01:09:10.485Z,0
2023-01-12T01:10:19.661Z,0
2023-01-12T01:11:28.835Z,0
2023-01-12T01:12:37.999Z,0
2023-01-12T01:13:46.197Z,0
2023-01-12T01:14:54.384Z,0
2023-01-12T01:16:03.552Z,0
2023-01-12T01:17:12.732Z,0
2023-01-12T01:18:20.926Z,0
2023-01-12T01:19:29.134Z,0
2023-01-12T01:20:38.299Z,0
2023-01-12T01:21:47.476Z,0
2023-01-12T01:22:56.635Z,0
2023-01-12T01:24:05.868Z,0
2023-01-12T01:25:14.980Z,0
2023-01-12T01:26:24.174Z,0
2023-01-12T01:27:33.345Z,0
2023-01-12T01:28:42.543Z,0
2023-01-12T01:29:51.695Z,0
2023-01-12T01:31:00.841Z,0
2023-01-12T01:32:10.019Z,0
2023-01-12T01:33:19.196Z,0
2023-01-12T01:34:27.387Z,0
2023-01-12T01:35:36.581Z,0
2023-01-12T01:36:45.723Z,0
2023-01-12T01:37:54.906Z,0
2023-01-12T01:39:04.085Z,0
2023-01-12T01:41:22.424Z,0
2023-01-12T01:42:31.602Z,0
2023-01-12T01:43:40.765Z,0
2023-01-12T01:44:49.928Z,0
2023-01-12T01:45:59.135Z,0
2023-01-12T01:47:08.271Z,0
2023-01-12T01:48:17.475Z,0
2023-01-12T01:49:25.647Z,0
2023-01-12T01:50:34.817Z,0
2023-01-12T01:51:43.982Z,0
2023-01-12T01:52:53.178Z,0
2023-01-12T01:54:02.329Z,0
2023-01-12T01:55:11.508Z,0
2023-01-12T01:56:20.678Z,0
2023-01-12T01:57:29.849Z,0
2023-01-12T01:58:39.026Z,0
2023-01-12T01:59:47.242Z,0
2023-01-12T02:00:55.397Z,0
2023-01-12T02:02:04.632Z,0
2023-01-12T02:03:13.749Z,0
2023-01-12T02:04:22.916Z,0
2023-01-12T02:05:32.092Z,0
2023-01-12T02:06:41.263Z,0
2023-01-12T02:07:50.431Z,0
2023-01-12T02:08:59.589Z,0
2023-01-12T02:10:08.784Z,0
2023-01-12T02:11:16.979Z,0
2023-01-12T02:12:26.154Z,0
2023-01-12T02:13:34.345Z,0
2023-01-12T02:14:43.505Z,0
2023-01-12T02:15:52.696Z,0
2023-01-12T02:17:01.857Z,0
2023-01-12T02:18:11.077Z,0
2023-01-12T02:19:20.195Z,0
2023-01-12T02:20:29.369Z,0
2023-01-12T02:21:38.549Z,0
2023-01-12T02:22:47.720Z,0
2023-01-12T02:23:56.879Z,0
2023-01-12T02:25:06.061Z,0
2023-01-12T02:26:15.266Z,0
2023-01-12T02:27:24.401Z,0
2023-01-12T02:28:32.717Z,0
2023-01-12T02:29:41.776Z,0
2023-01-12T02:30:50.959Z,0
2023-01-12T02:32:00.107Z,0
2023-01-12T02:33:09.329Z,0
2023-01-12T02:34:18.456Z,0
2023-01-12T02:35:27.634Z,0
2023-01-12T02:36:36.807Z,0
2023-01-12T02:37:45.980Z,0
2023-01-12T02:38:54.172Z,0
2023-01-12T02:40:02.361Z,0
2023-01-12T02:41:11.546Z,0
2023-01-12T02:42:20.709Z,0
2023-01-12T02:43:29.899Z,0
2023-01-12T02:44:39.052Z,0
2023-01-12T02:45:47.253Z,0
2023-01-12T02:46:55.455Z,0
2023-01-12T02:48:04.614Z,0
2023-01-12T02:49:13.773Z,0
2023-01-12T02:51:32.153Z,0
2023-01-12T02:52:41.400Z,0
2023-01-12T02:53:50.469Z,0
2023-01-12T02:54:59.643Z,0
2023-01-12T02:56:08.804Z,0
2023-01-12T02:57:17.997Z,0
2023-01-12T02:58:27.163Z,0
2023-01-12T02:59:36.324Z,0
2023-01-12T03:00:45.499Z,0
2023-01-12T03:01:53.699Z,0
2023-01-12T03:03:02.860Z,0
2023-01-12T03:04:12.036Z,0
2023-01-12T03:05:21.221Z,0
2023-01-12T03:06:30.387Z,0
2023-01-12T03:08:48.729Z,0
2023-01-12T03:09:56.916Z,0
2023-01-12T03:11:05.100Z,0
2023-01-12T03:12:14.360Z,0
2023-01-12T03:13:23.457Z,0
2023-01-12T03:14:32.616Z,0
2023-01-12T03:15:41.800Z,0
2023-01-12T03:16:50.981Z,0
2023-01-12T03:18:00.152Z,0
2023-01-12T03:19:09.317Z,0
2023-01-12T03:20:18.482Z,0
2023-01-12T03:21:27.660Z,0
2023-01-12T03:22:35.843Z,0
2023-01-12T03:23:44.054Z,0
2023-01-12T03:26:02.386Z,0
2023-01-12T03:27:11.545Z,0
2023-01-12T03:28:20.732Z,0
2023-01-12T03:29:29.907Z,0
2023-01-12T03:30:39.071Z,0
2023-01-12T03:31:48.249Z,0
2023-01-12T03:32:57.429Z,0
2023-01-12T03:34:06.620Z,0
2023-01-12T03:35:15.784Z,0
2023-01-12T03:36:24.932Z,0
2023-01-12T03:37:34.113Z,0
2023-01-12T03:38:42.308Z,0
2023-01-12T03:39:51.479Z,0
2023-01-12T03:41:00.643Z,0
2023-01-12T03:42:09.814Z,0
2023-01-12T03:43:19.009Z,0
2023-01-12T03:44:28.153Z,0
2023-01-12T03:45:37.347Z,0
2023-01-12T03:46:46.523Z,0
2023-01-12T03:47:54.708Z,0
2023-01-12T03:49:03.870Z,0
2023-01-12T03:51:21.240Z,0
2023-01-12T03:52:29.432Z,0
2023-01-12T03:53:37.715Z,0
2023-01-12T03:54:46.794Z,0
2023-01-12T03:55:55.967Z,0
2023-01-12T03:57:05.159Z,0
2023-01-12T03:58:14.309Z,0
2023-01-12T03:59:23.501Z,0
2023-01-12T04:00:32.669Z,0
2023-01-12T04:01:41.855Z,0
2023-01-12T04:02:50.998Z,0
2023-01-12T04:04:00.192Z,0
2023-01-12T04:05:09.340Z,0
2023-01-12T04:06:18.519Z,0
2023-01-12T04:07:27.687Z,0
2023-01-12T04:08:35.884Z,0
2023-01-12T04:09:45.061Z,0
2023-01-12T04:10:54.218Z,0
2023-01-12T04:12:03.408Z,0
2023-01-12T04:13:12.590Z,0
2023-01-12T04:14:21.753Z,0
2023-01-12T04:15:30.971Z,0
2023-01-12T04:16:39.126Z,0
2023-01-12T04:17:47.305Z,0
2023-01-12T04:18:56.466Z,0
2023-01-12T04:20:05.637Z,0
2023-01-12T04:21:13.838Z,0
2023-01-12T04:22:22.023Z,0
2023-01-12T04:23:31.197Z,0
2023-01-12T04:24:40.366Z,0
2023-01-12T04:25:49.545Z,0
2023-01-12T04:26:58.707Z,0
2023-01-12T04:28:07.877Z,0
2023-01-12T04:29:17.073Z,0
2023-01-12T04:30:26.229Z,0
2023-01-12T04:31:35.401Z,0
2023-01-12T04:32:44.579Z,0
2023-01-12T04:33:53.749Z,0
2023-01-12T04:35:02.922Z,0
2023-01-12T04:36:12.092Z,0
2023-01-12T04:37:20.292Z,0
2023-01-12T04:38:29.462Z,0
2023-01-12T04:39:38.623Z,0
2023-01-12T04:40:47.794Z,0
2023-01-12T04:41:56.968Z,0
2023-01-12T04:43:06.177Z,0
2023-01-12T04:44:15.354Z,0
2023-01-12T04:45:23.555Z,0
2023-01-12T04:46:31.723Z,0
2023-01-12T04:47:40.043Z,0
2023-01-12T04:48:48.096Z,0
2023-01-12T04:49:57.246Z,0
2023-01-12T04:51:06.440Z,0
2023-01-12T04:52:15.603Z,0
2023-01-12T04:53:24.843Z,0
2023-01-12T04:54:33.943Z,0
2023-01-12T04:55:43.106Z,0
2023-01-12T04:56:52.301Z,0
2023-01-12T04:58:01.483Z,0
2023-01-12T04:59:10.643Z,0
2023-01-12T05:00:19.823Z,0
2023-01-12T05:01:28.984Z,0
2023-01-12T05:02:38.179Z,0
2023-01-12T05:03:46.356Z,0
2023-01-12T05:04:55.519Z,0
2023-01-12T05:06:04.743Z,0
2023-01-12T05:07:13.860Z,0
2023-01-12T05:08:23.031Z,3
2023-01-12T05:09:31.222Z,3
2023-01-12T05:10:40.386Z,0
2023-01-12T05:11:49.563Z,0
2023-01-12T05:12:58.744Z,0
2023-01-12T05:14:08.047Z,0
2023-01-12T05:15:17.133Z,0
2023-01-12T05:16:26.257Z,0
2023-01-12T05:17:35.426Z,0
2023-01-12T05:18:44.619Z,0
2023-01-12T05:19:53.774Z,0
2023-01-12T05:21:02.946Z,0
2023-01-12T05:22:12.193Z,0
2023-01-12T05:23:21.301Z,9
2023-01-12T05:24:29.471Z,9
2023-01-12T05:25:38.676Z,9
2023-01-12T05:26:47.823Z,9
2023-01-12T05:27:56.999Z,9
2023-01-12T05:29:06.184Z,4
2023-01-12T05:30:15.336Z,9
2023-01-12T05:31:24.509Z,12
2023-01-12T05:32:33.694Z,9
2023-01-12T05:33:42.861Z,16
2023-01-12T05:34:52.039Z,12
2023-01-12T05:36:01.203Z,12
2023-01-12T05:37:10.378Z,12
2023-01-12T05:38:19.552Z,12
2023-01-12T05:39:27.731Z,4
2023-01-12T05:40:36.914Z,4
2023-01-12T05:42:55.327Z,9
2023-01-12T05:44:04.447Z,9
2023-01-12T05:45:12.621Z,9
2023-01-12T05:46:20.813Z,9
2023-01-12T05:47:29.975Z,9
2023-01-12T05:48:39.155Z,9
2023-01-12T05:49:48.325Z,9
2023-01-12T05:50:57.500Z,9
2023-01-12T05:53:15.849Z,9
2023-01-12T05:54:25.041Z,9
2023-01-12T05:55:34.209Z,4
2023-01-12T05:56:43.372Z,9
2023-01-12T05:57:51.553Z,9
2023-01-12T05:58:59.750Z,9
2023-01-12T06:00:08.946Z,4
2023-01-12T06:01:18.094Z,9
2023-01-12T06:02:27.296Z,4
2023-01-12T06:03:36.442Z,9
2023-01-12T06:04:45.604Z,9
2023-01-12T06:05:54.808Z,9
2023-01-12T06:07:03.973Z,9
2023-01-12T06:08:13.127Z,9
2023-01-12T06:09:22.304Z,9
2023-01-12T06:10:31.474Z,9
2023-01-12T06:11:40.651Z,9
2023-01-12T06:12:49.815Z,9
2023-01-12T06:13:58.044Z,9
2023-01-12T06:16:16.354Z,9
2023-01-12T06:17:25.533Z,4
2023-01-12T06:18:34.706Z,9
2023-01-12T06:19:43.860Z,9
2023-01-12T06:20:53.046Z,4
2023-01-12T06:22:02.203Z,9
2023-01-12T06:23:10.408Z,9
2023-01-12T06:24:18.599Z,9
2023-01-12T06:25:27.770Z,9
2023-01-12T06:26:35.972Z,9
2023-01-12T06:27:44.154Z,9
2023-01-12T06:28:53.342Z,4
2023-01-12T06:30:02.516Z,9
2023-01-12T06:31:11.699Z,9
2023-01-12T06:32:20.855Z,9
2023-01-12T06:33:30.016Z,4
2023-01-12T06:34:39.260Z,9
2023-01-12T06:35:48.369Z,9
2023-01-12T06:39:15.875Z,9
2023-01-12T06:40:25.070Z,9
2023-01-12T06:41:34.227Z,4
2023-01-12T06:42:42.475Z,9
2023-01-12T06:43:51.587Z,9
2023-01-12T06:44:59.765Z,9
2023-01-12T06:46:08.940Z,9
2023-01-12T06:47:18.131Z,9
2023-01-12T06:48:27.313Z,9
2023-01-12T06:49:36.484Z,9
2023-01-12T06:50:45.642Z,9
2023-01-12T06:51:54.824Z,9
2023-01-12T06:53:03.974Z,9
2023-01-12T06:54:13.340Z,4
2023-01-12T06:55:21.353Z,9
2023-01-12T06:56:29.547Z,9
2023-01-12T06:57:38.710Z,9
2023-01-12T06:58:47.932Z,9
2023-01-12T06:59:57.136Z,9
2023-01-12T07:01:06.296Z,9
2023-01-12T07:02:15.402Z,9
2023-01-12T07:03:24.575Z,9
2023-01-12T07:04:33.749Z,9
2023-01-12T07:05:42.921Z,15
2023-01-12T07:06:52.100Z,15
2023-01-12T07:08:01.265Z,15
2023-01-12T07:09:10.436Z,15
2023-01-12T07:10:19.611Z,9
2023-01-12T07:11:27.806Z,9
2023-01-12T07:12:36.958Z,18
2023-01-12T07:13:46.223Z,15
2023-01-12T07:14:55.324Z,20
2023-01-12T07:16:04.539Z,13
2023-01-12T07:17:13.800Z,13
2023-01-12T07:18:22.863Z,13
2023-01-12T07:19:32.102Z,20
2023-01-12T07:20:41.178Z,18
2023-01-12T07:21:50.382Z,20
2023-01-12T07:22:59.616Z,26
2023-01-12T07:24:08.705Z,30
2023-01-12T07:26:27.058Z,31
2023-01-12T07:27:35.254Z,41
2023-01-12T07:28:44.400Z,41
2023-01-12T07:29:53.568Z,36
2023-01-12T07:31:02.758Z,41
2023-01-12T07:32:11.921Z,45
2023-01-12T07:33:21.099Z,41
2023-01-12T07:34:30.255Z,41
2023-01-12T07:35:39.431Z,45
2023-01-12T07:36:48.601Z,42
2023-01-12T07:37:57.783Z,39
2023-01-12T07:39:07.017Z,39
2023-01-12T07:40:16.184Z,41
2023-01-12T07:41:25.291Z,41
2023-01-12T07:42:33.504Z,45
2023-01-12T07:43:42.661Z,47
2023-01-12T07:44:51.832Z,47
2023-01-12T07:47:10.204Z,65
2023-01-12T07:48:19.353Z,79
2023-01-12T07:49:27.541Z,98
2023-01-12T07:50:35.729Z,141
2023-01-12T07:51:44.965Z,137
2023-01-12T07:52:54.084Z,159
2023-01-12T07:54:03.248Z,134
2023-01-12T07:55:12.433Z,100
2023-01-12T07:56:21.662Z,78
2023-01-12T07:57:30.789Z,74
2023-01-12T07:58:39.944Z,39
2023-01-12T07:59:49.116Z,69
2023-01-12T08:00:58.296Z,82
2023-01-12T08:02:07.476Z,192
2023-01-12T08:03:16.772Z,325
2023-01-12T08:04:25.826Z,410
2023-01-12T08:05:34.013Z,314
2023-01-12T08:06:43.161Z,231
2023-01-12T08:07:52.413Z,199
2023-01-12T08:09:01.529Z,185
2023-01-12T08:10:10.815Z,166
2023-01-12T08:11:19.852Z,153
2023-01-12T08:12:29.040Z,132
2023-01-12T08:13:37.243Z,134
2023-01-12T08:15:54.595Z,202
2023-01-12T08:17:02.805Z,172
2023-01-12T08:18:11.037Z,354
2023-01-12T08:19:20.201Z,366
2023-01-12T08:20:29.313Z,319
2023-01-12T08:21:38.496Z,547
2023-01-12T08:22:47.735Z,366
2023-01-12T08:23:56.837Z,521
2023-01-12T08:26:15.192Z,398
2023-01-12T08:27:24.355Z,551
2023-01-12T08:28:33.542Z,548
2023-01-12T08:29:42.688Z,673
2023-01-12T08:30:51.853Z,528
2023-01-12T08:32:01.040Z,313
2023-01-12T08:33:09.225Z,560
2023-01-12T08:34:18.412Z,470
2023-01-12T08:35:27.572Z,378
2023-01-12T08:36:36.880Z,352
2023-01-12T08:37:46.102Z,356
2023-01-12T08:38:55.269Z,437
2023-01-12T08:40:04.388Z,690
2023-01-12T08:41:13.600Z,490
2023-01-12T08:42:22.799Z,480
2023-01-12T08:43:31.771Z,365
2023-01-12T08:44:41.051Z,260
2023-01-12T08:45:50.234Z,499
2023-01-12T08:46:59.304Z,417
2023-01-12T08:48:07.594Z,427
2023-01-12T08:49:15.675Z,557
2023-01-12T08:50:23.943Z,635
2023-01-12T08:51:33.046Z,517
2023-01-12T08:52:42.228Z,331
2023-01-12T08:53:51.404Z,339
2023-01-12T08:54:59.575Z,303
2023-01-12T08:56:07.764Z,474
2023-01-12T08:57:17.047Z,1140
2023-01-12T08:58:26.264Z,969
2023-01-12T09:00:44.687Z,606
2023-01-12T09:01:52.815Z,503
2023-01-12T09:03:01.819Z,658
2023-01-12T09:04:10.995Z,618
2023-01-12T09:05:20.176Z,902
2023-01-12T09:06:29.340Z,861
2023-01-12T09:08:47.684Z,1538
2023-01-12T09:09:55.879Z,1142
2023-01-12T09:11:04.070Z,1424
2023-01-12T09:12:13.243Z,1708
2023-01-12T09:13:22.412Z,1526
2023-01-12T09:14:31.580Z,1119
2023-01-12T09:15:40.902Z,1517
2023-01-12T09:16:49.995Z,1299
2023-01-12T09:17:59.262Z,1379
2023-01-12T09:19:08.479Z,1318
2023-01-12T09:20:17.444Z,907
2023-01-12T09:21:26.634Z,1057
2023-01-12T09:22:35.808Z,1016
2023-01-12T09:23:43.996Z,1406
2023-01-12T09:24:52.178Z,1205
2023-01-12T09:26:01.353Z,918
2023-01-12T09:27:10.524Z,779
2023-01-12T09:28:19.721Z,725
2023-01-12T09:30:38.044Z,1375
2023-01-12T09:31:47.208Z,1077
2023-01-12T09:34:05.700Z,2052
2023-01-12T09:35:14.914Z,1868
2023-01-12T09:36:24.043Z,1744
2023-01-12T09:37:33.076Z,1663
2023-01-12T09:38:41.263Z,1505
2023-01-12T09:39:49.459Z,1204
2023-01-12T09:40:58.645Z,969
2023-01-12T09:42:07.804Z,1450
2023-01-12T09:43:16.977Z,1181
2023-01-12T09:44:26.145Z,1268
2023-01-12T09:46:44.539Z,1320
2023-01-12T09:47:53.774Z,1272
2023-01-12T09:49:03.013Z,1221
2023-01-12T09:50:12.085Z,1068
2023-01-12T09:51:21.184Z,640
2023-01-12T09:52:30.363Z,976
2023-01-12T09:53:39.530Z,1341
2023-01-12T09:55:56.911Z,826
2023-01-12T09:57:05.090Z,1012
2023-01-12T09:58:13.281Z,980
2023-01-12T09:59:22.447Z,811
2023-01-12T10:00:31.629Z,873
2023-01-12T10:01:40.912Z,722
2023-01-12T10:02:50.126Z,919
2023-01-12T10:03:59.138Z,1037
2023-01-12T10:05:08.315Z,1122
2023-01-12T10:06:17.488Z,935
2023-01-12T10:07:26.675Z,640
2023-01-12T10:08:35.834Z,794
2023-01-12T10:09:45.019Z,1308
2023-01-12T10:10:53.190Z,1137
2023-01-12T10:12:01.388Z,1012
2023-01-12T10:13:10.567Z,1114
2023-01-12T10:14:19.728Z,1071
2023-01-12T10:15:28.901Z,1416
2023-01-12T10:16:38.076Z,1471
2023-01-12T10:17:47.255Z,1163
2023-01-12T10:18:56.473Z,829
2023-01-12T10:20:05.669Z,1207
2023-01-12T10:21:14.914Z,1494
2023-01-12T10:22:23.933Z,1267
2023-01-12T10:23:32.135Z,1560
2023-01-12T10:24:40.322Z,1652
2023-01-12T10:25:49.489Z,1594
2023-01-12T10:26:58.677Z,1875
2023-01-12T10:28:07.842Z,1541
2023-01-12T10:29:17.006Z,1631
2023-01-12T10:30:26.231Z,1563
2023-01-12T10:31:35.393Z,1310
2023-01-12T10:33:53.711Z,1469
2023-01-12T10:35:02.873Z,1184
2023-01-12T10:36:12.038Z,2138
2023-01-12T10:37:21.223Z,1948
2023-01-12T10:38:30.454Z,1870
2023-01-12T10:39:38.579Z,1958
2023-01-12T10:40:47.751Z,1734
2023-01-12T10:41:56.929Z,1849
2023-01-12T10:43:06.089Z,1597
2023-01-12T10:44:15.274Z,1189
2023-01-12T10:45:24.581Z,1365
2023-01-12T10:46:33.787Z,1361
2023-01-12T10:47:42.783Z,1314
2023-01-12T10:48:51.955Z,1337
2023-01-12T10:50:01.141Z,1684
2023-01-12T10:51:10.296Z,1238
2023-01-12T10:52:19.481Z,1173
2023-01-12T10:53:28.651Z,1560
2023-01-12T10:54:36.840Z,1382
2023-01-12T10:55:46.003Z,1668
2023-01-12T10:56:55.185Z,1538
2023-01-12T10:58:04.357Z,1306
2023-01-12T10:59:13.535Z,1688
2023-01-12T11:00:22.697Z,1551
2023-01-12T11:01:31.882Z,1203
2023-01-12T11:02:41.042Z,1311
2023-01-12T11:03:50.220Z,2090
2023-01-12T11:04:59.381Z,1786
2023-01-12T11:06:08.596Z,1278
2023-01-12T11:07:17.759Z,1316
2023-01-12T11:08:26.916Z,1243
2023-01-12T11:09:35.107Z,1307
2023-01-12T11:10:44.401Z,1884
2023-01-12T11:11:53.452Z,1451
2023-01-12T11:13:02.651Z,1472
2023-01-12T11:14:11.784Z,1837
2023-01-12T11:15:20.967Z,1862
2023-01-12T11:16:30.129Z,1532
2023-01-12T11:17:39.324Z,1480
2023-01-12T11:18:48.472Z,1466
2023-01-12T11:19:57.655Z,1327
2023-01-12T11:21:06.831Z,1612
2023-01-12T11:22:16.004Z,2072
2023-01-12T11:23:25.155Z,2188
2023-01-12T11:25:42.526Z,2907
2023-01-12T11:26:51.698Z,2150
2023-01-12T11:29:10.053Z,2498
2023-01-12T11:31:28.395Z,1780
2023-01-12T11:32:36.596Z,2540
2023-01-12T11:33:44.773Z,1810
2023-01-12T11:34:53.945Z,1364
2023-01-12T11:36:03.119Z,2033
2023-01-12T11:38:21.461Z,1634
2023-01-12T11:39:30.643Z,2066
2023-01-12T11:40:39.819Z,2158
2023-01-12T11:41:48.989Z,1921
2023-01-12T11:42:58.167Z,2765
2023-01-12T11:44:07.347Z,2165
2023-01-12T11:45:16.508Z,2223
2023-01-12T11:46:25.681Z,2680
2023-01-12T11:47:34.874Z,2360
2023-01-12T11:48:43.048Z,1411
2023-01-12T11:49:52.216Z,2359
2023-01-12T11:51:01.388Z,2057
2023-01-12T11:52:10.565Z,2720
2023-01-12T11:53:19.740Z,2177
2023-01-12T11:54:28.910Z,2066
2023-01-12T11:55:38.085Z,2240
2023-01-12T11:56:47.250Z,2609
2023-01-12T11:57:55.443Z,1839
2023-01-12T11:59:03.628Z,1771
2023-01-12T12:00:11.857Z,2460
2023-01-12T12:01:20.073Z,2533
2023-01-12T12:02:29.206Z,1933
2023-01-12T12:03:38.441Z,1951
2023-01-12T12:04:47.530Z,2369
2023-01-12T12:05:56.714Z,1894
2023-01-12T12:07:05.886Z,2203
2023-01-12T12:08:15.060Z,2033
2023-01-12T12:09:24.223Z,1602
2023-01-12T12:10:33.396Z,1735
2023-01-12T12:11:42.588Z,2942
2023-01-12T12:12:51.745Z,3228
2023-01-12T12:14:00.922Z,2607
2023-01-12T12:15:10.091Z,1977
2023-01-12T12:16:18.268Z,2216
2023-01-12T12:17:27.458Z,1461
2023-01-12T12:18:36.657Z,2328
2023-01-12T12:20:54.974Z,1992
2023-01-12T12:22:04.146Z,3223
2023-01-12T12:23:13.326Z,3806
2023-01-12T12:24:22.500Z,2709
2023-01-12T12:25:31.660Z,2250
2023-01-12T12:26:40.837Z,2112
2023-01-12T12:27:50.011Z,1798
2023-01-12T12:28:59.183Z,1713
2023-01-12T12:30:08.349Z,1699
2023-01-12T12:31:16.543Z,1562
2023-01-12T12:32:25.717Z,1612
2023-01-12T12:33:34.890Z,1634
2023-01-12T12:34:44.069Z,1532
2023-01-12T12:35:53.229Z,1488
2023-01-12T12:37:02.402Z,1804
2023-01-12T12:38:11.580Z,1860
2023-01-12T12:39:20.745Z,1584
2023-01-12T12:41:39.099Z,1580
2023-01-12T12:42:48.276Z,1595
2023-01-12T12:43:57.429Z,1769
2023-01-12T12:45:06.627Z,1506
2023-01-12T12:46:14.798Z,1321
2023-01-12T12:47:23.971Z,1467
2023-01-12T12:48:33.132Z,1171
2023-01-12T12:49:42.314Z,1158
2023-01-12T12:50:51.529Z,1578
2023-01-12T12:51:59.691Z,1578
2023-01-12T12:53:08.867Z,1236
2023-01-12T12:54:17.070Z,1039
2023-01-12T12:55:25.323Z,1940
2023-01-12T12:56:34.430Z,1117
2023-01-12T12:57:43.589Z,1749
2023-01-12T12:58:52.775Z,1449
2023-01-12T13:00:01.994Z,1908
2023-01-12T13:01:11.116Z,1560
2023-01-12T13:02:20.286Z,2364
2023-01-12T13:03:29.456Z,2447
2023-01-12T13:04:38.793Z,1802
2023-01-12T13:05:47.796Z,1982
2023-01-12T13:06:56.986Z,1902
2023-01-12T13:08:06.144Z,1720
2023-01-12T13:09:15.317Z,1802
2023-01-12T13:10:23.512Z,2333
2023-01-12T13:11:32.682Z,1594
2023-01-12T13:12:41.853Z,2228
2023-01-12T13:13:51.093Z,2042
2023-01-12T13:15:00.212Z,1666
2023-01-12T13:16:09.392Z,1980
2023-01-12T13:17:18.560Z,2293
2023-01-12T13:18:26.741Z,1397
2023-01-12T13:19:34.935Z,1470
2023-01-12T13:20:43.113Z,1399
2023-01-12T13:21:51.311Z,1633
2023-01-12T13:23:00.480Z,1723
2023-01-12T13:24:09.654Z,1288
2023-01-12T13:25:18.826Z,1177
2023-01-12T13:26:27.999Z,1408
2023-01-12T13:27:37.169Z,1635
2023-01-12T13:29:55.524Z,1708
2023-01-12T13:31:04.697Z,1268
2023-01-12T13:32:13.870Z,1463
2023-01-12T13:33:23.047Z,1117
2023-01-12T13:34:32.223Z,1274
2023-01-12T13:35:41.380Z,1033
2023-01-12T13:36:49.580Z,995
2023-01-12T13:37:58.752Z,982
2023-01-12T13:39:07.918Z,949
2023-01-12T13:40:17.087Z,1138
2023-01-12T13:41:26.262Z,1051
2023-01-12T13:42:35.439Z,931
2023-01-12T13:43:44.639Z,870
2023-01-12T13:44:53.777Z,1051
2023-01-12T13:46:01.981Z,1444
2023-01-12T13:47:10.242Z,1316
2023-01-12T13:48:18.368Z,1456
2023-01-12T13:49:26.561Z,1183
2023-01-12T13:50:35.716Z,1624
2023-01-12T13:51:44.895Z,1401
2023-01-12T13:52:54.083Z,1700
2023-01-12T13:54:03.241Z,1744
2023-01-12T13:55:12.496Z,1362
2023-01-12T13:56:21.578Z,1580
2023-01-12T13:57:30.751Z,1237
2023-01-12T13:58:39.989Z,1633
2023-01-12T13:59:49.160Z,1663
2023-01-12T14:00:58.267Z,1828
2023-01-12T14:02:07.447Z,1683
2023-01-12T14:03:16.616Z,1256
2023-01-12T14:05:33.981Z,1503
2023-01-12T14:06:43.153Z,1440
2023-01-12T14:07:52.313Z,1532
2023-01-12T14:10:10.670Z,1686
2023-01-12T14:11:18.884Z,1230
2023-01-12T14:12:27.141Z,1439
2023-01-12T14:13:36.331Z,1354
2023-01-12T14:14:45.575Z,1328
2023-01-12T14:15:54.793Z,1206
2023-01-12T14:17:03.895Z,1406
2023-01-12T14:18:13.190Z,1089
2023-01-12T14:19:22.089Z,1208
2023-01-12T14:20:31.451Z,1078
2023-01-12T14:21:40.441Z,1120
2023-01-12T14:22:49.709Z,1066
2023-01-12T14:23:57.951Z,1259
2023-01-12T14:25:06.169Z,1174
2023-01-12T14:27:24.498Z,1036
2023-01-12T14:28:33.631Z,815
2023-01-12T14:29:42.741Z,996
2023-01-12T14:30:51.878Z,1009
2023-01-12T14:32:01.147Z,841
2023-01-12T14:33:10.208Z,918
2023-01-12T14:34:19.414Z,709
2023-01-12T14:35:28.540Z,747
2023-01-12T14:36:37.710Z,890
2023-01-12T14:37:46.890Z,534
2023-01-12T14:38:56.138Z,640
2023-01-12T14:40:04.255Z,581
2023-01-12T14:41:13.428Z,809
2023-01-12T14:42:22.638Z,572
2023-01-12T14:43:31.764Z,537
2023-01-12T14:45:50.134Z,566
2023-01-12T14:46:58.301Z,479
2023-01-12T14:48:06.503Z,426
2023-01-12T14:49:15.685Z,504
2023-01-12T14:50:24.857Z,507
2023-01-12T14:51:34.014Z,397
2023-01-12T14:52:43.321Z,351
2023-01-12T14:53:52.475Z,424
2023-01-12T14:55:01.533Z,348
2023-01-12T14:56:10.735Z,354
2023-01-12T14:57:19.889Z,463
2023-01-12T14:58:29.133Z,358
2023-01-12T14:59:37.428Z,309
2023-01-12T15:00:45.511Z,305
2023-01-12T15:01:54.718Z,333
2023-01-12T15:03:03.799Z,275
2023-01-12T15:04:12.957Z,362
2023-01-12T15:05:22.152Z,271
2023-01-12T15:06:31.315Z,377
2023-01-12T15:07:40.474Z,325
2023-01-12T15:08:49.653Z,243
2023-01-12T15:09:58.814Z,284
2023-01-12T15:11:07.995Z,240
2023-01-12T15:12:17.191Z,299
2023-01-12T15:13:26.332Z,258
2023-01-12T15:14:35.560Z,237
2023-01-12T15:15:43.695Z,260
2023-01-12T15:16:52.869Z,231
2023-01-12T15:19:11.217Z,238
2023-01-12T15:20:20.397Z,252
2023-01-12T15:21:29.647Z,189
2023-01-12T15:22:38.744Z,230
2023-01-12T15:23:47.932Z,192
2023-01-12T15:24:57.091Z,182
2023-01-12T15:26:06.318Z,165
2023-01-12T15:27:15.498Z,183
2023-01-12T15:28:24.591Z,154
2023-01-12T15:29:33.762Z,132
2023-01-12T15:30:41.952Z,135
2023-01-12T15:31:51.129Z,112
2023-01-12T15:33:00.300Z,107
2023-01-12T15:34:09.469Z,96
2023-01-12T15:35:18.641Z,86
2023-01-12T15:36:27.820Z,78
2023-01-12T15:37:36.986Z,69
2023-01-12T15:41:04.503Z,52
2023-01-12T15:42:12.703Z,50
2023-01-12T15:43:20.903Z,48
2023-01-12T15:44:30.126Z,48
2023-01-12T15:45:39.269Z,36
2023-01-12T15:46:48.408Z,35
2023-01-12T15:47:57.580Z,30
2023-01-12T15:49:06.809Z,30
2023-01-12T15:50:15.928Z,27
2023-01-12T15:51:25.100Z,18
2023-01-12T15:53:43.444Z,15
2023-01-12T15:54:52.655Z,15
2023-01-12T15:56:01.872Z,9
2023-01-12T15:57:11.020Z,1
2023-01-12T15:58:19.184Z,9
2023-01-12T15:59:28.319Z,9
2023-01-12T16:00:37.487Z,9
2023-01-12T16:01:46.674Z,4
2023-01-12T16:02:55.845Z,4
2023-01-12T16:04:05.047Z,3
2023-01-12T16:05:14.238Z,3
2023-01-12T16:06:23.409Z,3
2023-01-12T16:07:32.538Z,3
2023-01-12T16:08:40.788Z,3
2023-01-12T16:09:48.948Z,3
2023-01-12T16:10:58.088Z,3
2023-01-12T16:12:07.299Z,3
2023-01-12T16:13:16.414Z,3
2023-01-12T16:14:25.604Z,0
2023-01-12T16:15:34.783Z,0
2023-01-12T16:16:43.937Z,0
2023-01-12T16:17:53.192Z,0
2023-01-12T16:19:02.291Z,0
2023-01-12T16:20:11.529Z,0
2023-01-12T16:21:20.630Z,0
2023-01-12T16:22:29.820Z,0
2023-01-12T16:23:38.999Z,0
2023-01-12T16:24:47.182Z,0
2023-01-12T16:25:56.354Z,0
2023-01-12T16:28:14.688Z,0
2023-01-12T16:29:23.876Z,0
2023-01-12T16:30:33.119Z,0
2023-01-12T16:31:42.243Z,0
2023-01-12T16:32:51.410Z,0
2023-01-12T16:33:59.634Z,0
2023-01-12T16:35:07.835Z,0
2023-01-12T16:36:15.953Z,0
2023-01-12T16:37:24.141Z,0
2023-01-12T16:38:33.310Z,0
2023-01-12T16:39:42.499Z,0
2023-01-12T16:40:51.659Z,0
2023-01-12T16:42:00.850Z,0
2023-01-12T16:43:10.011Z,0
2023-01-12T16:44:19.196Z,0
2023-01-12T16:45:27.514Z,0
2023-01-12T16:46:36.559Z,0
2023-01-12T16:47:45.722Z,0
2023-01-12T16:48:54.890Z,0
2023-01-12T16:50:04.058Z,0
2023-01-12T16:51:13.300Z,0
2023-01-12T16:52:22.425Z,0
2023-01-12T16:53:31.571Z,0
2023-01-12T16:54:40.782Z,0
2023-01-12T16:55:49.931Z,0
2023-01-12T16:56:59.133Z,0
2023-01-12T16:58:08.297Z,0
2023-01-12T16:59:17.456Z,0
2023-01-12T17:00:25.660Z,0